createdAt,value
2023-05-14T00:00:14.157Z,99.93
2023-05-14T00:01:14.176Z,99.99
2023-05-14T00:02:14.153Z,99.48
2023-05-14T00:03:14.385Z,99.68
2023-05-14T00:04:14.148Z,99.79
2023-05-14T00:05:14.147Z,99.27
2023-05-14T00:06:14.145Z,99.58
2023-05-14T00:07:14.107Z,99.48
2023-05-14T00:08:14.097Z,99.42
2023-05-14T00:09:14.092Z,99.68
2023-05-14T00:10:14.116Z,99.52
2023-05-14T00:11:14.077Z,99.48
2023-05-14T00:12:14.070Z,99.83
2023-05-14T00:13:14.053Z,99.73
2023-05-14T00:14:14.056Z,99.89
2023-05-14T00:15:14.091Z,99.93
2023-05-14T00:16:14.092Z,99.83
2023-05-14T00:17:14.027Z,99.48
2023-05-14T00:18:14.021Z,99.73
2023-05-14T00:19:14.074Z,99.73
2023-05-14T00:20:14.049Z,99.93
2023-05-14T00:21:14.002Z,98.80
2023-05-14T00:22:13.990Z,99.83
2023-05-14T00:23:13.993Z,99.52
2023-05-14T00:24:13.980Z,99.63
2023-05-14T00:25:13.998Z,99.73
2023-05-14T00:26:13.969Z,99.63
2023-05-14T00:27:13.955Z,99.73
2023-05-14T00:28:13.958Z,99.99
2023-05-14T00:29:13.962Z,99.88
2023-05-14T00:30:13.966Z,99.63
2023-05-14T00:31:13.960Z,99.52
2023-05-14T00:32:13.913Z,99.88
2023-05-14T00:33:13.912Z,99.67
2023-05-14T00:34:13.925Z,99.77
2023-05-14T00:35:13.883Z,99.77
2023-05-14T00:36:13.881Z,99.99
2023-05-14T00:37:13.887Z,99.99
2023-05-14T00:38:13.871Z,99.99
2023-05-14T00:39:13.879Z,99.99
2023-05-14T00:40:13.875Z,99.99
2023-05-14T00:41:13.833Z,99.99
2023-05-14T00:42:13.836Z,99.99
2023-05-14T00:43:13.855Z,99.98
2023-05-14T00:44:13.840Z,99.99
2023-05-14T00:45:13.821Z,99.99
2023-05-14T00:46:13.830Z,99.99
2023-05-14T00:47:13.789Z,99.99
2023-05-14T00:48:13.811Z,99.99
2023-05-14T00:49:13.788Z,99.99
2023-05-14T00:50:13.775Z,99.99
2023-05-14T00:51:13.756Z,99.99
2023-05-14T00:52:13.747Z,99.99
2023-05-14T00:53:13.768Z,99.99
2023-05-14T00:54:13.737Z,99.99
2023-05-14T00:55:13.737Z,99.99
2023-05-14T00:56:13.713Z,99.99
2023-05-14T00:57:13.750Z,99.99
2023-05-14T00:58:13.732Z,99.99
2023-05-14T00:59:14.699Z,99.99
2023-05-14T01:00:13.695Z,99.99
2023-05-14T01:01:13.726Z,99.99
2023-05-14T01:02:13.698Z,99.99
2023-05-14T01:03:13.754Z,99.99
2023-05-14T01:04:13.663Z,99.99
2023-05-14T01:05:13.647Z,99.99
2023-05-14T01:06:13.642Z,99.99
2023-05-14T01:07:13.659Z,99.99
2023-05-14T01:08:13.628Z,99.99
2023-05-14T01:09:13.625Z,99.99
2023-05-14T01:10:13.595Z,99.99
2023-05-14T01:11:14.623Z,99.99
2023-05-14T01:12:13.622Z,99.99
2023-05-14T01:13:13.580Z,99.99
2023-05-14T01:14:13.572Z,99.99
2023-05-14T01:15:13.569Z,99.99
2023-05-14T01:16:13.627Z,99.99
2023-05-14T01:17:13.568Z,99.99
2023-05-14T01:18:13.638Z,99.99
2023-05-14T01:19:13.610Z,99.99
2023-05-14T01:20:13.529Z,99.99
2023-05-14T01:21:13.539Z,99.99
2023-05-14T01:22:13.503Z,99.99
2023-05-14T01:23:13.497Z,99.99
2023-05-14T01:24:14.494Z,99.99
2023-05-14T01:25:13.480Z,99.99
2023-05-14T01:26:13.499Z,99.99
2023-05-14T01:27:13.469Z,99.99
2023-05-14T01:28:13.454Z,99.99
2023-05-14T01:29:13.446Z,99.99
2023-05-14T01:30:13.465Z,99.99
2023-05-14T01:31:13.463Z,99.99
2023-05-14T01:32:13.468Z,99.99
2023-05-14T01:33:13.446Z,99.99
2023-05-14T01:34:13.411Z,99.99
2023-05-14T01:35:13.430Z,99.99
2023-05-14T01:36:13.403Z,99.99
2023-05-14T01:37:13.389Z,99.99
2023-05-14T01:38:13.384Z,99.99
2023-05-14T01:39:13.372Z,99.99
2023-05-14T01:40:13.397Z,99.99
2023-05-14T01:41:13.359Z,99.99
2023-05-14T01:42:13.347Z,99.99
2023-05-14T01:43:13.425Z,99.99
2023-05-14T01:44:13.355Z,99.99
2023-05-14T01:45:13.348Z,99.99
2023-05-14T01:46:13.376Z,99.99
2023-05-14T01:47:13.303Z,99.99
2023-05-14T01:48:13.294Z,99.99
2023-05-14T01:49:13.323Z,99.99
2023-05-14T01:50:13.282Z,99.99
2023-05-14T01:51:13.265Z,99.99
2023-05-14T01:52:13.267Z,99.99
2023-05-14T01:53:13.254Z,99.99
2023-05-14T01:54:13.270Z,99.99
2023-05-14T01:55:13.235Z,99.99
2023-05-14T01:56:13.239Z,99.99
2023-05-14T01:57:13.220Z,99.99
2023-05-14T01:58:13.216Z,99.99
2023-05-14T01:59:13.231Z,99.99
2023-05-14T02:00:13.198Z,99.99
2023-05-14T02:01:13.240Z,99.99
2023-05-14T02:02:13.184Z,99.99
2023-05-14T02:03:13.289Z,99.99
2023-05-14T02:04:13.218Z,99.99
2023-05-14T02:05:13.154Z,99.99
2023-05-14T02:06:13.152Z,99.99
2023-05-14T02:07:13.147Z,99.99
2023-05-14T02:08:13.158Z,99.99
2023-05-14T02:09:13.122Z,99.99
2023-05-14T02:10:13.117Z,99.79
2023-05-14T02:11:13.108Z,99.99
2023-05-14T02:12:13.110Z,99.89
2023-05-14T02:13:13.115Z,99.99
2023-05-14T02:14:13.085Z,99.99
2023-05-14T02:15:13.078Z,99.99
2023-05-14T02:16:13.178Z,99.99
2023-05-14T02:17:13.087Z,99.99
2023-05-14T02:18:13.204Z,99.99
2023-05-14T02:19:13.081Z,99.99
2023-05-14T02:20:13.047Z,99.99
2023-05-14T02:21:13.040Z,99.99
2023-05-14T02:22:13.050Z,99.99
2023-05-14T02:23:13.017Z,99.99
2023-05-14T02:24:13.015Z,99.99
2023-05-14T02:25:13.050Z,99.99
2023-05-14T02:26:13.037Z,99.99
2023-05-14T02:27:13.016Z,99.99
2023-05-14T02:28:12.982Z,99.99
2023-05-14T02:29:12.972Z,99.99
2023-05-14T02:30:12.959Z,99.99
2023-05-14T02:31:13.015Z,99.99
2023-05-14T02:32:13.013Z,99.99
2023-05-14T02:33:13.091Z,99.82
2023-05-14T02:34:12.931Z,99.99
2023-05-14T02:35:12.923Z,99.99
2023-05-14T02:36:12.936Z,99.99
2023-05-14T02:37:12.936Z,99.99
2023-05-14T02:38:12.895Z,99.99
2023-05-14T02:39:12.890Z,99.99
2023-05-14T02:40:12.897Z,99.99
2023-05-14T02:41:12.901Z,99.99
2023-05-14T02:42:12.868Z,99.99
2023-05-14T02:43:12.855Z,99.99
2023-05-14T02:44:12.867Z,99.99
2023-05-14T02:45:12.847Z,99.99
2023-05-14T02:46:12.904Z,99.99
2023-05-14T02:47:12.860Z,99.99
2023-05-14T02:48:12.940Z,99.99
2023-05-14T02:49:12.810Z,99.99
2023-05-14T02:50:12.810Z,99.99
2023-05-14T02:51:12.820Z,99.99
2023-05-14T02:52:12.787Z,99.99
2023-05-14T02:53:12.779Z,99.99
2023-05-14T02:54:12.772Z,99.99
2023-05-14T02:55:12.771Z,99.99
2023-05-14T02:56:12.775Z,99.99
2023-05-14T02:57:12.748Z,99.99
2023-05-14T02:58:12.749Z,99.99
2023-05-14T02:59:12.738Z,99.99
2023-05-14T03:00:12.744Z,99.99
2023-05-14T03:01:12.788Z,99.99
2023-05-14T03:02:12.759Z,99.99
2023-05-14T03:03:12.752Z,99.99
2023-05-14T03:04:12.704Z,99.99
2023-05-14T03:05:12.706Z,99.99
2023-05-14T03:06:12.720Z,99.99
2023-05-14T03:07:12.682Z,99.99
2023-05-14T03:08:12.664Z,99.99
2023-05-14T03:09:12.654Z,99.99
2023-05-14T03:10:12.725Z,99.99
2023-05-14T03:11:12.647Z,99.99
2023-05-14T03:12:45.147Z,99.99
2023-05-14T03:13:12.628Z,99.99
2023-05-14T03:14:12.642Z,99.99
2023-05-14T03:15:12.640Z,99.99
2023-05-14T03:16:12.636Z,99.99
2023-05-14T03:17:12.632Z,99.99
2023-05-14T03:18:12.589Z,99.99
2023-05-14T03:19:12.636Z,99.99
2023-05-14T03:20:12.590Z,99.99
2023-05-14T03:21:12.563Z,99.99
2023-05-14T03:22:12.555Z,99.99
2023-05-14T03:23:12.577Z,99.99
2023-05-14T03:24:12.566Z,99.99
2023-05-14T03:25:12.547Z,99.99
2023-05-14T03:26:12.545Z,99.99
2023-05-14T03:27:12.527Z,99.99
2023-05-14T03:28:12.550Z,99.99
2023-05-14T03:29:12.531Z,99.99
2023-05-14T03:30:12.506Z,99.99
2023-05-14T03:31:12.550Z,99.99
2023-05-14T03:32:12.488Z,99.99
2023-05-14T03:33:12.513Z,99.99
2023-05-14T03:34:12.466Z,99.99
2023-05-14T03:35:12.460Z,99.99
2023-05-14T03:36:12.453Z,99.99
2023-05-14T03:37:12.450Z,99.99
2023-05-14T03:38:12.464Z,99.99
2023-05-14T03:39:12.434Z,99.99
2023-05-14T03:40:12.424Z,99.99
2023-05-14T03:41:12.430Z,99.99
2023-05-14T03:42:12.424Z,99.99
2023-05-14T03:43:12.422Z,99.99
2023-05-14T03:44:12.396Z,99.99
2023-05-14T03:45:12.382Z,99.99
2023-05-14T03:46:12.372Z,99.99
2023-05-14T03:47:12.390Z,99.99
2023-05-14T03:48:12.498Z,99.99
2023-05-14T03:49:12.373Z,99.99
2023-05-14T03:50:12.359Z,99.99
2023-05-14T03:51:12.333Z,99.99
2023-05-14T03:52:12.359Z,99.99
2023-05-14T03:53:12.319Z,99.99
2023-05-14T03:54:12.316Z,99.99
2023-05-14T03:55:12.298Z,99.99
2023-05-14T03:56:12.295Z,99.99
2023-05-14T03:57:12.306Z,99.99
2023-05-14T03:58:12.270Z,99.54
2023-05-14T03:59:12.269Z,98.67
2023-05-14T04:00:12.258Z,98.71
2023-05-14T04:01:12.283Z,98.30
2023-05-14T04:02:12.350Z,97.94
2023-05-14T04:03:12.340Z,98.04
2023-05-14T04:04:12.377Z,98.35
2023-05-14T04:05:12.216Z,98.66
2023-05-14T04:06:12.245Z,99.27
2023-05-14T04:07:12.234Z,99.07
2023-05-14T04:08:12.194Z,99.07
2023-05-14T04:09:12.185Z,99.38
2023-05-14T04:10:12.178Z,99.52
2023-05-14T04:11:12.197Z,99.68
2023-05-14T04:12:12.198Z,98.51
2023-05-14T04:13:12.161Z,99.03
2023-05-14T04:14:12.149Z,97.05
2023-05-14T04:15:12.164Z,95.28
2023-05-14T04:16:12.230Z,92.23
2023-05-14T04:17:12.118Z,89.79
2023-05-14T04:18:12.138Z,88.63
2023-05-14T04:19:12.266Z,87.77
2023-05-14T04:20:12.101Z,86.61
2023-05-14T04:21:12.110Z,84.84
2023-05-14T04:22:12.085Z,84.76
2023-05-14T04:23:12.075Z,82.82
2023-05-14T04:24:12.065Z,82.56
2023-05-14T04:25:12.078Z,84.53
2023-05-14T04:26:12.073Z,85.74
2023-05-14T04:27:12.044Z,86.73
2023-05-14T04:28:12.025Z,88.31
2023-05-14T04:29:12.013Z,88.96
2023-05-14T04:30:12.053Z,89.31
2023-05-14T04:31:12.015Z,90.23
2023-05-14T04:32:11.991Z,90.31
2023-05-14T04:33:11.990Z,91.03
2023-05-14T04:34:11.974Z,91.03
2023-05-14T04:35:11.996Z,92.10
2023-05-14T04:36:11.960Z,92.71
2023-05-14T04:37:11.969Z,92.81
2023-05-14T04:38:11.939Z,93.37
2023-05-14T04:39:11.942Z,93.26
2023-05-14T04:40:11.951Z,93.26
2023-05-14T04:41:11.922Z,93.88
2023-05-14T04:42:11.929Z,93.57
2023-05-14T04:43:11.917Z,94.39
2023-05-14T04:44:11.913Z,94.18
2023-05-14T04:45:11.914Z,94.23
2023-05-14T04:46:11.968Z,94.29
2023-05-14T04:47:11.871Z,95.51
2023-05-14T04:48:11.870Z,94.90
2023-05-14T04:49:11.868Z,93.77
2023-05-14T04:50:12.866Z,94.70
2023-05-14T04:51:11.851Z,94.59
2023-05-14T04:52:11.831Z,95.21
2023-05-14T04:53:11.847Z,95.10
2023-05-14T04:54:11.893Z,95.21
2023-05-14T04:55:11.818Z,95.31
2023-05-14T04:56:11.808Z,95.21
2023-05-14T04:57:11.797Z,94.80
2023-05-14T04:58:11.788Z,94.84
2023-05-14T04:59:11.808Z,94.95
2023-05-14T05:00:11.773Z,94.90
2023-05-14T05:01:11.812Z,95.46
2023-05-14T05:02:11.767Z,95.66
2023-05-14T05:03:11.858Z,95.76
2023-05-14T05:04:11.799Z,95.72
2023-05-14T05:05:11.748Z,95.97
2023-05-14T05:06:11.729Z,95.87
2023-05-14T05:07:11.720Z,96.17
2023-05-14T05:08:11.756Z,95.87
2023-05-14T05:09:11.717Z,96.13
2023-05-14T05:10:11.710Z,96.17
2023-05-14T05:11:11.706Z,96.38
2023-05-14T05:12:11.681Z,96.13
2023-05-14T05:13:11.692Z,96.33
2023-05-14T05:14:11.668Z,96.95
2023-05-14T05:15:11.656Z,96.95
2023-05-14T05:16:11.788Z,96.33
2023-05-14T05:17:11.645Z,96.13
2023-05-14T05:18:11.665Z,96.08
2023-05-14T05:19:11.763Z,96.19
2023-05-14T05:20:11.621Z,96.19
2023-05-14T05:21:11.615Z,95.98
2023-05-14T05:22:11.604Z,96.19
2023-05-14T05:23:11.624Z,95.88
2023-05-14T05:24:11.592Z,96.08
2023-05-14T05:25:11.583Z,95.73
2023-05-14T05:26:11.569Z,94.81
2023-05-14T05:27:11.570Z,94.51
2023-05-14T05:28:11.590Z,95.32
2023-05-14T05:29:11.550Z,94.15
2023-05-14T05:30:11.537Z,94.77
2023-05-14T05:31:11.568Z,94.46
2023-05-14T05:32:11.526Z,94.67
2023-05-14T05:33:11.600Z,94.01
2023-05-14T05:34:11.511Z,94.48
2023-05-14T05:35:11.509Z,93.86
2023-05-14T05:36:11.493Z,92.84
2023-05-14T05:37:11.509Z,93.00
2023-05-14T05:38:11.473Z,92.39
2023-05-14T05:39:11.474Z,91.83
2023-05-14T05:40:11.461Z,91.28
2023-05-14T05:41:11.446Z,90.57
2023-05-14T05:42:11.473Z,90.22
2023-05-14T05:43:11.437Z,90.12
2023-05-14T05:44:11.427Z,89.71
2023-05-14T05:45:11.434Z,89.57
2023-05-14T05:46:11.515Z,89.63
2023-05-14T05:47:11.429Z,88.98
2023-05-14T05:48:11.400Z,89.12
2023-05-14T05:49:11.420Z,88.98
2023-05-14T05:50:11.390Z,87.96
2023-05-14T05:51:11.420Z,87.92
2023-05-14T05:52:11.366Z,88.02
2023-05-14T05:53:11.354Z,87.57
2023-05-14T05:54:11.358Z,87.87
2023-05-14T05:55:11.345Z,88.08
2023-05-14T05:56:11.355Z,87.98
2023-05-14T05:57:11.327Z,87.08
2023-05-14T05:58:11.330Z,86.02
2023-05-14T05:59:11.309Z,85.92
2023-05-14T06:00:11.298Z,86.08
2023-05-14T06:01:11.319Z,85.17
2023-05-14T06:02:11.367Z,84.66
2023-05-14T06:03:11.342Z,84.46
2023-05-14T06:04:11.272Z,84.46
2023-05-14T06:05:11.301Z,83.20
2023-05-14T06:06:11.282Z,82.80
2023-05-14T06:07:11.247Z,82.05
2023-05-14T06:08:11.243Z,82.70
2023-05-14T06:09:11.229Z,82.19
2023-05-14T06:10:11.225Z,82.15
2023-05-14T06:11:11.258Z,82.19
2023-05-14T06:12:11.219Z,82.59
2023-05-14T06:13:11.213Z,83.31
2023-05-14T06:14:11.189Z,82.70
2023-05-14T06:15:11.205Z,82.76
2023-05-14T06:16:11.286Z,82.66
2023-05-14T06:17:11.162Z,82.98
2023-05-14T06:18:11.152Z,81.37
2023-05-14T06:19:11.294Z,80.92
2023-05-14T06:20:11.163Z,80.92
2023-05-14T06:21:11.133Z,80.21
2023-05-14T06:22:11.145Z,80.27
2023-05-14T06:23:11.119Z,80.10
2023-05-14T06:24:11.109Z,79.19
2023-05-14T06:25:11.129Z,79.29
2023-05-14T06:26:11.092Z,78.34
2023-05-14T06:27:11.094Z,78.61
2023-05-14T06:28:11.088Z,77.76
2023-05-14T06:29:11.101Z,77.55
2023-05-14T06:30:11.100Z,75.36
2023-05-14T06:31:11.053Z,72.67
2023-05-14T06:32:11.061Z,70.89
2023-05-14T06:33:11.069Z,69.02
2023-05-14T06:34:11.049Z,65.28
2023-05-14T06:35:11.033Z,65.01
2023-05-14T06:36:11.013Z,65.89
2023-05-14T06:37:11.008Z,65.09
2023-05-14T06:38:11.003Z,66.25
2023-05-14T06:39:11.006Z,66.65
2023-05-14T06:40:10.983Z,67.25
2023-05-14T06:41:10.970Z,67.35
2023-05-14T06:42:10.958Z,65.02
2023-05-14T06:43:10.989Z,64.52
2023-05-14T06:44:10.988Z,64.52
2023-05-14T06:45:10.942Z,63.76
2023-05-14T06:46:10.928Z,62.10
2023-05-14T06:47:10.928Z,61.74
2023-05-14T06:48:11.007Z,60.69
2023-05-14T06:49:11.008Z,58.94
2023-05-14T06:50:11.071Z,57.79
2023-05-14T06:51:11.890Z,57.96
2023-05-14T06:52:10.887Z,57.79
2023-05-14T06:53:10.906Z,58.97
2023-05-14T06:54:10.872Z,59.79
2023-05-14T06:55:10.870Z,60.71
2023-05-14T06:56:10.855Z,62.16
2023-05-14T06:57:10.855Z,63.03
2023-05-14T06:58:10.912Z,60.75
2023-05-14T06:59:10.830Z,59.23
2023-05-14T07:00:10.827Z,59.31
2023-05-14T07:01:10.891Z,58.91
2023-05-14T07:02:10.828Z,57.71
2023-05-14T07:03:10.872Z,58.14
2023-05-14T07:04:10.815Z,57.94
2023-05-14T07:05:10.801Z,59.47
2023-05-14T07:06:12.502Z,60.91
2023-05-14T07:07:10.796Z,65.59
2023-05-14T07:08:10.767Z,68.02
2023-05-14T07:09:10.755Z,68.59
2023-05-14T07:10:10.759Z,67.95
2023-05-14T07:11:10.752Z,67.18
2023-05-14T07:12:10.774Z,69.89
2023-05-14T07:13:10.733Z,68.82
2023-05-14T07:14:10.729Z,67.29
2023-05-14T07:15:10.721Z,67.65
2023-05-14T07:16:10.720Z,67.46
2023-05-14T07:17:10.777Z,64.09
2023-05-14T07:18:10.753Z,63.48
2023-05-14T07:19:10.743Z,67.19
2023-05-14T07:20:10.680Z,66.02
2023-05-14T07:21:10.698Z,66.11
2023-05-14T07:22:10.690Z,66.99
2023-05-14T07:23:10.665Z,64.22
2023-05-14T07:24:10.651Z,66.49
2023-05-14T07:25:10.646Z,64.07
2023-05-14T07:26:10.668Z,64.34
2023-05-14T07:27:10.639Z,64.65
2023-05-14T07:28:10.624Z,64.84
2023-05-14T07:29:10.616Z,65.95
2023-05-14T07:30:10.603Z,64.15
2023-05-14T07:31:10.643Z,64.62
2023-05-14T07:32:10.937Z,61.71
2023-05-14T07:33:11.602Z,63.45
2023-05-14T07:34:10.586Z,63.72
2023-05-14T07:35:10.600Z,65.45
2023-05-14T07:36:10.592Z,63.06
2023-05-14T07:37:10.569Z,62.55
2023-05-14T07:38:10.549Z,63.42
2023-05-14T07:39:10.542Z,62.71
2023-05-14T07:40:10.593Z,63.08
2023-05-14T07:41:10.552Z,62.08
2023-05-14T07:42:10.523Z,60.72
2023-05-14T07:43:10.518Z,63.06
2023-05-14T07:44:10.503Z,61.89
2023-05-14T07:45:10.540Z,63.32
2023-05-14T07:46:10.490Z,61.32
2023-05-14T07:47:11.593Z,62.12
2023-05-14T07:48:10.507Z,59.89
2023-05-14T07:49:10.496Z,57.76
2023-05-14T07:50:10.490Z,58.52
2023-05-14T07:51:10.479Z,59.91
2023-05-14T07:52:10.447Z,63.54
2023-05-14T07:53:10.435Z,62.94
2023-05-14T07:54:11.487Z,63.70
2023-05-14T07:55:10.435Z,63.95
2023-05-14T07:56:10.434Z,62.77
2023-05-14T07:57:10.420Z,62.30
2023-05-14T07:58:10.430Z,64.15
2023-05-14T07:59:10.436Z,61.24
2023-05-14T08:00:10.395Z,62.47
2023-05-14T08:01:10.403Z,63.57
2023-05-14T08:02:10.496Z,62.97
2023-05-14T08:03:10.474Z,65.73
2023-05-14T08:04:10.656Z,66.27
2023-05-14T08:05:10.379Z,67.27
2023-05-14T08:06:10.364Z,63.17
2023-05-14T08:07:10.347Z,64.07
2023-05-14T08:08:10.370Z,64.74
2023-05-14T08:09:10.363Z,63.81
2023-05-14T08:10:10.336Z,66.18
2023-05-14T08:11:10.389Z,62.57
2023-05-14T08:12:10.316Z,64.18
2023-05-14T08:13:10.343Z,64.18
2023-05-14T08:14:10.303Z,61.34
2023-05-14T08:15:10.295Z,60.68
2023-05-14T08:16:10.291Z,59.72
2023-05-14T08:17:10.304Z,58.69
2023-05-14T08:18:10.333Z,58.06
2023-05-14T08:19:10.298Z,58.31
2023-05-14T08:20:10.259Z,60.29
2023-05-14T08:21:10.256Z,61.91
2023-05-14T08:22:10.239Z,62.20
2023-05-14T08:23:10.267Z,63.70
2023-05-14T08:24:10.237Z,62.47
2023-05-14T08:25:10.223Z,62.24
2023-05-14T08:26:10.225Z,60.11
2023-05-14T08:27:10.253Z,60.85
2023-05-14T08:28:10.232Z,59.69
2023-05-14T08:29:11.176Z,59.45
2023-05-14T08:30:10.212Z,59.82
2023-05-14T08:31:11.248Z,60.10
2023-05-14T08:32:22.006Z,61.96
2023-05-14T08:33:12.200Z,59.69
2023-05-14T08:34:10.159Z,60.75
2023-05-14T08:35:10.158Z,62.95
2023-05-14T08:36:10.148Z,61.38
2023-05-14T08:37:10.160Z,61.25
2023-05-14T08:38:10.130Z,58.39
2023-05-14T08:39:10.135Z,60.65
2023-05-14T08:40:10.119Z,62.11
2023-05-14T08:41:10.125Z,59.45
2023-05-14T08:42:10.135Z,58.92
2023-05-14T08:43:10.090Z,59.19
2023-05-14T08:44:10.091Z,58.06
2023-05-14T08:45:10.080Z,58.34
2023-05-14T08:46:10.098Z,56.74
2023-05-14T08:47:10.065Z,57.24
2023-05-14T08:48:10.125Z,56.71
2023-05-14T08:49:10.115Z,55.34
2023-05-14T08:50:10.037Z,58.26
2023-05-14T08:51:10.067Z,58.19
2023-05-14T08:52:10.024Z,58.02
2023-05-14T08:53:10.012Z,60.05
2023-05-14T08:54:10.002Z,62.24
2023-05-14T08:55:10.029Z,62.68
2023-05-14T08:56:10.032Z,60.65
2023-05-14T08:57:10.067Z,58.42
2023-05-14T08:58:09.976Z,58.95
2023-05-14T08:59:09.973Z,57.87
2023-05-14T09:00:09.996Z,58.87
2023-05-14T09:01:09.958Z,60.08
2023-05-14T09:02:09.987Z,58.91
2023-05-14T09:03:09.967Z,58.18
2023-05-14T09:04:09.988Z,58.65
2023-05-14T09:05:09.954Z,58.02
2023-05-14T09:06:09.925Z,57.65
2023-05-14T09:07:09.932Z,59.25
2023-05-14T09:08:09.901Z,58.52
2023-05-14T09:09:09.921Z,59.42
2023-05-14T09:10:09.927Z,58.78
2023-05-14T09:11:09.886Z,59.38
2023-05-14T09:12:09.880Z,62.11
2023-05-14T09:13:09.866Z,60.24
2023-05-14T09:14:09.913Z,62.44
2023-05-14T09:15:09.874Z,59.50
2023-05-14T09:16:09.904Z,58.28
2023-05-14T09:17:09.850Z,60.55
2023-05-14T09:18:09.856Z,58.75
2023-05-14T09:19:09.876Z,59.65
2023-05-14T09:20:09.830Z,58.65
2023-05-14T09:21:09.810Z,60.08
2023-05-14T09:22:09.854Z,60.88
2023-05-14T09:23:09.795Z,60.15
2023-05-14T09:24:09.810Z,61.55
2023-05-14T09:25:09.796Z,60.61
2023-05-14T09:26:09.769Z,61.90
2023-05-14T09:27:09.763Z,62.70
2023-05-14T09:28:09.752Z,61.13
2023-05-14T09:29:09.777Z,61.33
2023-05-14T09:30:09.739Z,62.17
2023-05-14T09:31:09.773Z,59.77
2023-05-14T09:32:09.739Z,61.17
2023-05-14T09:33:09.807Z,60.69
2023-05-14T09:34:09.729Z,62.60
2023-05-14T09:35:09.706Z,61.87
2023-05-14T09:36:09.698Z,62.24
2023-05-14T09:37:09.691Z,62.31
2023-05-14T09:38:09.678Z,61.11
2023-05-14T09:39:09.697Z,60.77
2023-05-14T09:40:09.653Z,61.33
2023-05-14T09:41:10.651Z,64.10
2023-05-14T09:42:09.646Z,62.32
2023-05-14T09:43:09.632Z,65.23
2023-05-14T09:44:10.663Z,65.77
2023-05-14T09:45:09.638Z,64.13
2023-05-14T09:46:09.619Z,63.79
2023-05-14T09:47:09.626Z,65.57
2023-05-14T09:48:10.803Z,62.56
2023-05-14T09:49:09.616Z,62.43
2023-05-14T09:50:09.609Z,61.22
2023-05-14T09:51:09.578Z,61.22
2023-05-14T09:52:09.572Z,62.20
2023-05-14T09:53:09.570Z,62.50
2023-05-14T09:54:09.577Z,62.20
2023-05-14T09:55:09.555Z,63.78
2023-05-14T09:56:09.544Z,61.40
2023-05-14T09:57:09.537Z,59.96
2023-05-14T09:58:09.553Z,60.89
2023-05-14T09:59:09.550Z,60.29
2023-05-14T10:00:09.506Z,62.20
2023-05-14T10:01:09.545Z,61.52
2023-05-14T10:02:09.509Z,61.30
2023-05-14T10:03:09.579Z,63.17
2023-05-14T10:04:09.489Z,62.56
2023-05-14T10:05:09.615Z,64.77
2023-05-14T10:06:09.465Z,62.83
2023-05-14T10:07:09.456Z,62.90
2023-05-14T10:08:09.470Z,62.20
2023-05-14T10:09:09.443Z,63.70
2023-05-14T10:10:09.433Z,62.70
2023-05-14T10:11:09.422Z,62.50
2023-05-14T10:12:09.430Z,63.28
2023-05-14T10:13:09.427Z,64.40
2023-05-14T10:14:09.383Z,62.43
2023-05-14T10:15:10.412Z,66.61
2023-05-14T10:16:09.388Z,66.74
2023-05-14T10:17:09.446Z,65.41
2023-05-14T10:18:09.496Z,64.80
2023-05-14T10:19:09.486Z,64.90
2023-05-14T10:20:09.360Z,64.33
2023-05-14T10:21:09.344Z,66.44
2023-05-14T10:22:09.357Z,65.47
2023-05-14T10:23:09.340Z,64.16
2023-05-14T10:24:09.365Z,67.00
2023-05-14T10:25:09.315Z,64.86
2023-05-14T10:26:09.299Z,65.44
2023-05-14T10:27:09.316Z,64.10
2023-05-14T10:28:09.284Z,64.17
2023-05-14T10:29:09.277Z,62.63
2023-05-14T10:30:09.269Z,66.85
2023-05-14T10:31:09.287Z,64.97
2023-05-14T10:32:09.279Z,64.50
2023-05-14T10:33:09.311Z,62.89
2023-05-14T10:34:09.243Z,64.17
2023-05-14T10:35:09.228Z,63.56
2023-05-14T10:36:09.253Z,61.33
2023-05-14T10:37:09.264Z,62.83
2023-05-14T10:38:09.224Z,61.60
2023-05-14T10:39:09.200Z,60.19
2023-05-14T10:40:09.196Z,60.69
2023-05-14T10:41:09.211Z,60.27
2023-05-14T10:42:09.179Z,59.36
2023-05-14T10:43:09.168Z,58.43
2023-05-14T10:44:09.159Z,58.53
2023-05-14T10:45:09.156Z,58.94
2023-05-14T10:46:09.189Z,58.50
2023-05-14T10:47:09.137Z,58.81
2023-05-14T10:48:09.159Z,59.44
2023-05-14T10:49:10.123Z,59.26
2023-05-14T10:50:09.138Z,58.86
2023-05-14T10:51:09.223Z,58.79
2023-05-14T10:52:09.094Z,58.59
2023-05-14T10:53:09.091Z,60.80
2023-05-14T10:54:09.080Z,60.16
2023-05-14T10:55:09.102Z,61.27
2023-05-14T10:56:09.098Z,60.27
2023-05-14T10:57:09.066Z,62.67
2023-05-14T10:58:09.047Z,62.27
2023-05-14T10:59:09.044Z,65.81
2023-05-14T11:00:09.117Z,62.13
2023-05-14T11:01:09.025Z,62.16
2023-05-14T11:02:09.074Z,63.09
2023-05-14T11:03:09.045Z,64.23
2023-05-14T11:04:09.076Z,63.62
2023-05-14T11:05:09.026Z,62.95
2023-05-14T11:06:08.995Z,64.86
2023-05-14T11:07:08.981Z,62.45
2023-05-14T11:08:08.975Z,63.56
2023-05-14T11:09:08.993Z,64.23
2023-05-14T11:10:08.982Z,64.60
2023-05-14T11:11:09.950Z,63.19
2023-05-14T11:12:08.942Z,62.30
2023-05-14T11:13:08.937Z,62.77
2023-05-14T11:14:10.230Z,61.27
2023-05-14T11:15:08.918Z,64.45
2023-05-14T11:16:21.966Z,62.24
2023-05-14T11:17:10.934Z,62.34
2023-05-14T11:18:09.002Z,61.97
2023-05-14T11:19:08.961Z,62.33
2023-05-14T11:20:08.887Z,62.93
2023-05-14T11:21:08.936Z,62.73
2023-05-14T11:22:08.850Z,65.74
2023-05-14T11:23:09.879Z,62.43
2023-05-14T11:24:08.871Z,62.69
2023-05-14T11:25:08.840Z,62.46
2023-05-14T11:26:08.883Z,63.23
2023-05-14T11:27:08.821Z,64.54
2023-05-14T11:28:08.866Z,62.70
2023-05-14T11:29:08.814Z,60.47
2023-05-14T11:30:08.815Z,61.14
2023-05-14T11:31:08.794Z,60.74
2023-05-14T11:32:08.942Z,62.77
2023-05-14T11:33:08.826Z,60.69
2023-05-14T11:34:08.772Z,62.60
2023-05-14T11:35:08.774Z,60.93
2023-05-14T11:36:08.755Z,62.73
2023-05-14T11:37:08.772Z,61.10
2023-05-14T11:38:09.331Z,62.84
2023-05-14T11:39:09.732Z,60.81
2023-05-14T11:40:08.731Z,59.44
2023-05-14T11:41:08.715Z,58.98
2023-05-14T11:42:08.784Z,60.78
2023-05-14T11:43:08.701Z,61.18
2023-05-14T11:44:09.211Z,60.91
2023-05-14T11:45:09.686Z,61.01
2023-05-14T11:46:08.744Z,60.80
2023-05-14T11:47:08.694Z,60.72
2023-05-14T11:48:08.718Z,61.43
2023-05-14T11:49:08.653Z,61.90
2023-05-14T11:50:09.631Z,58.96
2023-05-14T11:51:09.641Z,62.44
2023-05-14T11:52:08.662Z,62.71
2023-05-14T11:53:08.624Z,64.45
2023-05-14T11:54:08.619Z,58.50
2023-05-14T11:55:08.611Z,59.77
2023-05-14T11:56:09.907Z,58.96
2023-05-14T11:57:09.617Z,58.36
2023-05-14T11:58:08.581Z,60.57
2023-05-14T11:59:08.571Z,58.81
2023-05-14T12:00:08.565Z,60.05
2023-05-14T12:01:08.583Z,62.55
2023-05-14T12:02:08.565Z,61.31
2023-05-14T12:03:08.607Z,60.91
2023-05-14T12:04:08.644Z,61.44
2023-05-14T12:05:08.525Z,62.87
2023-05-14T12:06:08.554Z,63.00
2023-05-14T12:07:08.511Z,63.40
2023-05-14T12:08:08.503Z,61.40
2023-05-14T12:09:08.503Z,62.40
2023-05-14T12:10:08.528Z,62.63
2023-05-14T12:11:08.508Z,62.93
2023-05-14T12:12:08.480Z,61.33
2023-05-14T12:13:08.463Z,61.35
2023-05-14T12:14:08.458Z,59.72
2023-05-14T12:15:08.474Z,61.22
2023-05-14T12:16:08.525Z,59.09
2023-05-14T12:17:08.437Z,61.19
2023-05-14T12:18:20.600Z,61.30
2023-05-14T12:19:10.448Z,62.50
2023-05-14T12:20:08.441Z,61.22
2023-05-14T12:21:08.512Z,62.33
2023-05-14T12:22:08.396Z,61.43
2023-05-14T12:23:08.389Z,64.81
2023-05-14T12:24:08.381Z,62.40
2023-05-14T12:25:08.408Z,59.19
2023-05-14T12:26:08.385Z,61.19
2023-05-14T12:27:08.356Z,61.19
2023-05-14T12:28:08.349Z,62.90
2023-05-14T12:29:08.366Z,58.69
2023-05-14T12:31:09.357Z,62.37
2023-05-14T12:32:08.316Z,60.69
2023-05-14T12:33:08.349Z,62.73
2023-05-14T12:34:08.327Z,61.15
2023-05-14T12:35:08.293Z,62.76
2023-05-14T12:36:21.285Z,61.25
2023-05-14T12:37:10.284Z,62.63
2023-05-14T12:38:08.277Z,62.23
2023-05-14T12:39:08.284Z,62.23
2023-05-14T12:40:09.507Z,61.76
2023-05-14T12:41:08.255Z,63.17
2023-05-14T12:42:08.248Z,62.43
2023-05-14T12:43:08.234Z,63.64
2023-05-14T12:44:08.257Z,62.96
2023-05-14T12:45:08.345Z,63.76
2023-05-14T12:46:08.216Z,64.97
2023-05-14T12:47:08.309Z,62.16
2023-05-14T12:48:08.258Z,59.34
2023-05-14T12:49:08.236Z,63.17
2023-05-14T12:50:08.194Z,61.22
2023-05-14T12:51:08.174Z,59.09
2023-05-14T12:52:22.675Z,62.90
2023-05-14T12:53:10.186Z,60.97